sensor_id;sensor_type;location;lat;lon;timestamp;temperature;humidity
23160;DHT22;11748;50.844;4.396;2023-05-07T00:02:22;18.80;99.90
23160;DHT22;11748;50.844;4.396;2023-05-07T00:04:48;18.80;99.90
23160;DHT22;11748;50.844;4.396;2023-05-07T00:07:14;18.80;99.90
23160;DHT22;11748;50.844;4.396;2023-05-07T00:09:40;18.80;99.90
23160;DHT22;11748;50.844;4.396;2023-05-07T00:12:07;18.80;99.90
23160;DHT22;11748;50.844;4.396;2023-05-07T00:14:32;18.70;99.90
23160;DHT22;11748;50.844;4.396;2023-05-07T00:16:58;18.70;99.90
23160;DHT22;11748;50.844;4.396;2023-05-07T00:19:24;18.80;99.90
23160;DHT22;11748;50.844;4.396;2023-05-07T00:21:50;18.80;99.90
23160;DHT22;11748;50.844;4.396;2023-05-07T00:24:16;18.80;99.90
23160;DHT22;11748;50.844;4.396;2023-05-07T00:26:41;18.80;99.90
23160;DHT22;11748;50.844;4.396;2023-05-07T00:29:07;18.70;99.90
23160;DHT22;11748;50.844;4.396;2023-05-07T00:31:33;18.70;99.90
23160;DHT22;11748;50.844;4.396;2023-05-07T00:33:59;18.70;99.90
23160;DHT22;11748;50.844;4.396;2023-05-07T00:36:25;18.70;99.90
23160;DHT22;11748;50.844;4.396;2023-05-07T00:38:51;18.70;99.90
23160;DHT22;11748;50.844;4.396;2023-05-07T00:41:17;18.70;99.90
23160;DHT22;11748;50.844;4.396;2023-05-07T00:43:43;18.70;99.90
23160;DHT22;11748;50.844;4.396;2023-05-07T00:46:09;18.60;99.90
23160;DHT22;11748;50.844;4.396;2023-05-07T00:48:35;18.50;99.90
23160;DHT22;11748;50.844;4.396;2023-05-07T00:51:01;18.60;99.90
23160;DHT22;11748;50.844;4.396;2023-05-07T00:53:27;18.60;99.90
23160;DHT22;11748;50.844;4.396;2023-05-07T00:55:53;18.60;99.90
23160;DHT22;11748;50.844;4.396;2023-05-07T00:58:19;18.50;99.90
23160;DHT22;11748;50.844;4.396;2023-05-07T01:00:46;18.60;99.90
23160;DHT22;11748;50.844;4.396;2023-05-07T01:03:12;18.60;99.90
23160;DHT22;11748;50.844;4.396;2023-05-07T01:05:38;18.60;99.90
23160;DHT22;11748;50.844;4.396;2023-05-07T01:08:04;18.70;99.90
23160;DHT22;11748;50.844;4.396;2023-05-07T01:10:30;18.60;99.90
23160;DHT22;11748;50.844;4.396;2023-05-07T01:12:58;18.60;99.90
23160;DHT22;11748;50.844;4.396;2023-05-07T01:15:24;18.50;99.90
23160;DHT22;11748;50.844;4.396;2023-05-07T01:17:50;18.50;99.90
23160;DHT22;11748;50.844;4.396;2023-05-07T01:20:17;18.60;99.90
23160;DHT22;11748;50.844;4.396;2023-05-07T01:22:43;18.60;99.90
23160;DHT22;11748;50.844;4.396;2023-05-07T01:25:09;18.60;99.90
23160;DHT22;11748;50.844;4.396;2023-05-07T01:27:35;18.50;99.90
23160;DHT22;11748;50.844;4.396;2023-05-07T01:30:03;18.60;99.90
23160;DHT22;11748;50.844;4.396;2023-05-07T01:32:37;18.60;99.90
23160;DHT22;11748;50.844;4.396;2023-05-07T01:35:05;18.50;99.90
23160;DHT22;11748;50.844;4.396;2023-05-07T01:37:33;18.50;99.90
23160;DHT22;11748;50.844;4.396;2023-05-07T01:39:59;18.40;99.90
23160;DHT22;11748;50.844;4.396;2023-05-07T01:42:26;18.40;99.90
23160;DHT22;11748;50.844;4.396;2023-05-07T01:44:52;18.40;99.90
23160;DHT22;11748;50.844;4.396;2023-05-07T01:47:18;18.40;99.90
23160;DHT22;11748;50.844;4.396;2023-05-07T01:49:44;18.40;99.90
23160;DHT22;11748;50.844;4.396;2023-05-07T01:52:10;18.30;99.90
23160;DHT22;11748;50.844;4.396;2023-05-07T01:54:37;18.30;99.90
23160;DHT22;11748;50.844;4.396;2023-05-07T01:57:03;18.20;99.90
23160;DHT22;11748;50.844;4.396;2023-05-07T01:59:30;18.10;99.90
23160;DHT22;11748;50.844;4.396;2023-05-07T02:01:56;18.10;99.90
23160;DHT22;11748;50.844;4.396;2023-05-07T02:04:21;18.20;99.90
23160;DHT22;11748;50.844;4.396;2023-05-07T02:06:47;18.20;99.90
23160;DHT22;11748;50.844;4.396;2023-05-07T02:09:13;18.20;99.90
23160;DHT22;11748;50.844;4.396;2023-05-07T02:11:40;18.20;99.90
23160;DHT22;11748;50.844;4.396;2023-05-07T02:14:06;18.20;99.90
23160;DHT22;11748;50.844;4.396;2023-05-07T02:16:31;18.20;99.90
23160;DHT22;11748;50.844;4.396;2023-05-07T02:18:57;18.20;99.90
23160;DHT22;11748;50.844;4.396;2023-05-07T02:21:24;18.20;99.90
23160;DHT22;11748;50.844;4.396;2023-05-07T02:23:50;18.20;99.90
23160;DHT22;11748;50.844;4.396;2023-05-07T02:26:16;18.20;99.90
23160;DHT22;11748;50.844;4.396;2023-05-07T02:28:42;18.20;99.90
23160;DHT22;11748;50.844;4.396;2023-05-07T02:31:07;18.10;99.90
23160;DHT22;11748;50.844;4.396;2023-05-07T02:33:33;18.10;99.90
23160;DHT22;11748;50.844;4.396;2023-05-07T02:36:08;18.10;99.90
23160;DHT22;11748;50.844;4.396;2023-05-07T02:38:34;18.00;99.90
23160;DHT22;11748;50.844;4.396;2023-05-07T02:41:00;18.00;99.90
23160;DHT22;11748;50.844;4.396;2023-05-07T02:43:26;17.90;99.90
23160;DHT22;11748;50.844;4.396;2023-05-07T02:46:02;17.90;99.90
23160;DHT22;11748;50.844;4.396;2023-05-07T02:48:28;17.90;99.90
23160;DHT22;11748;50.844;4.396;2023-05-07T02:50:54;17.90;99.90
23160;DHT22;11748;50.844;4.396;2023-05-07T02:53:20;17.90;99.90
23160;DHT22;11748;50.844;4.396;2023-05-07T02:55:45;17.80;99.90
23160;DHT22;11748;50.844;4.396;2023-05-07T02:58:11;17.80;99.90
23160;DHT22;11748;50.844;4.396;2023-05-07T03:00:37;17.80;99.90
23160;DHT22;11748;50.844;4.396;2023-05-07T03:03:02;17.80;99.90
23160;DHT22;11748;50.844;4.396;2023-05-07T03:05:28;17.80;99.90
23160;DHT22;11748;50.844;4.396;2023-05-07T03:07:54;17.90;99.90
23160;DHT22;11748;50.844;4.396;2023-05-07T03:10:19;17.90;99.90
23160;DHT22;11748;50.844;4.396;2023-05-07T03:12:45;18.00;99.90
23160;DHT22;11748;50.844;4.396;2023-05-07T03:15:11;18.00;99.90
23160;DHT22;11748;50.844;4.396;2023-05-07T03:17:38;18.10;99.90
23160;DHT22;11748;50.844;4.396;2023-05-07T03:20:04;18.10;99.90
23160;DHT22;11748;50.844;4.396;2023-05-07T03:22:30;18.10;99.90
23160;DHT22;11748;50.844;4.396;2023-05-07T03:24:56;18.10;99.90
23160;DHT22;11748;50.844;4.396;2023-05-07T03:27:22;18.10;99.90
23160;DHT22;11748;50.844;4.396;2023-05-07T03:29:47;18.10;99.90
23160;DHT22;11748;50.844;4.396;2023-05-07T03:32:13;18.10;99.90
23160;DHT22;11748;50.844;4.396;2023-05-07T03:34:39;18.20;99.90
23160;DHT22;11748;50.844;4.396;2023-05-07T03:37:06;18.20;99.90
23160;DHT22;11748;50.844;4.396;2023-05-07T03:39:31;18.20;99.90
23160;DHT22;11748;50.844;4.396;2023-05-07T03:41:57;18.20;99.90
23160;DHT22;11748;50.844;4.396;2023-05-07T03:44:23;18.20;99.90
23160;DHT22;11748;50.844;4.396;2023-05-07T03:46:49;18.20;99.90
23160;DHT22;11748;50.844;4.396;2023-05-07T03:49:15;18.20;99.90
23160;DHT22;11748;50.844;4.396;2023-05-07T03:51:41;18.30;99.90
23160;DHT22;11748;50.844;4.396;2023-05-07T03:54:07;18.30;99.90
23160;DHT22;11748;50.844;4.396;2023-05-07T03:56:34;18.30;99.90
23160;DHT22;11748;50.844;4.396;2023-05-07T03:59:00;18.30;99.90
23160;DHT22;11748;50.844;4.396;2023-05-07T04:01:26;18.30;99.90
23160;DHT22;11748;50.844;4.396;2023-05-07T04:03:52;18.30;99.90
23160;DHT22;11748;50.844;4.396;2023-05-07T04:06:18;18.30;99.90
23160;DHT22;11748;50.844;4.396;2023-05-07T04:08:44;18.30;99.90
23160;DHT22;11748;50.844;4.396;2023-05-07T04:11:10;18.30;99.90
23160;DHT22;11748;50.844;4.396;2023-05-07T04:13:35;18.20;99.90
23160;DHT22;11748;50.844;4.396;2023-05-07T04:16:02;18.30;99.90
23160;DHT22;11748;50.844;4.396;2023-05-07T04:18:28;18.30;99.90
23160;DHT22;11748;50.844;4.396;2023-05-07T04:20:54;18.30;99.90
23160;DHT22;11748;50.844;4.396;2023-05-07T04:23:21;18.30;99.90
23160;DHT22;11748;50.844;4.396;2023-05-07T04:25:46;18.40;99.90
23160;DHT22;11748;50.844;4.396;2023-05-07T04:28:12;18.40;99.90
23160;DHT22;11748;50.844;4.396;2023-05-07T04:30:38;18.40;99.90
23160;DHT22;11748;50.844;4.396;2023-05-07T04:33:05;18.40;99.90
23160;DHT22;11748;50.844;4.396;2023-05-07T04:35:32;18.30;99.90
23160;DHT22;11748;50.844;4.396;2023-05-07T04:37:58;18.30;99.90
23160;DHT22;11748;50.844;4.396;2023-05-07T04:40:23;18.30;99.90
23160;DHT22;11748;50.844;4.396;2023-05-07T04:42:49;18.40;99.90
23160;DHT22;11748;50.844;4.396;2023-05-07T04:45:15;18.40;99.90
23160;DHT22;11748;50.844;4.396;2023-05-07T04:47:41;18.40;99.90
23160;DHT22;11748;50.844;4.396;2023-05-07T04:50:07;18.40;99.90
23160;DHT22;11748;50.844;4.396;2023-05-07T04:52:34;18.50;99.90
23160;DHT22;11748;50.844;4.396;2023-05-07T04:55:00;18.50;99.90
23160;DHT22;11748;50.844;4.396;2023-05-07T04:57:26;18.50;99.90
23160;DHT22;11748;50.844;4.396;2023-05-07T04:59:52;18.50;99.90
23160;DHT22;11748;50.844;4.396;2023-05-07T05:02:18;18.60;99.90
23160;DHT22;11748;50.844;4.396;2023-05-07T05:04:44;18.60;99.90
23160;DHT22;11748;50.844;4.396;2023-05-07T05:07:10;18.60;99.90
23160;DHT22;11748;50.844;4.396;2023-05-07T05:09:35;18.60;99.90
23160;DHT22;11748;50.844;4.396;2023-05-07T05:12:01;18.70;99.90
23160;DHT22;11748;50.844;4.396;2023-05-07T05:14:27;18.70;99.90
23160;DHT22;11748;50.844;4.396;2023-05-07T05:16:52;18.70;99.90
23160;DHT22;11748;50.844;4.396;2023-05-07T05:19:18;18.80;99.90
23160;DHT22;11748;50.844;4.396;2023-05-07T05:21:44;18.90;99.90
23160;DHT22;11748;50.844;4.396;2023-05-07T05:24:10;18.90;99.90
23160;DHT22;11748;50.844;4.396;2023-05-07T05:26:35;19.00;99.90
23160;DHT22;11748;50.844;4.396;2023-05-07T05:29:01;19.10;99.90
23160;DHT22;11748;50.844;4.396;2023-05-07T05:31:27;19.10;99.90
23160;DHT22;11748;50.844;4.396;2023-05-07T05:33:53;19.00;99.90
23160;DHT22;11748;50.844;4.396;2023-05-07T05:36:18;19.00;99.90
23160;DHT22;11748;50.844;4.396;2023-05-07T05:38:44;19.10;99.90
23160;DHT22;11748;50.844;4.396;2023-05-07T05:41:10;19.20;99.90
23160;DHT22;11748;50.844;4.396;2023-05-07T05:43:36;19.20;99.90
23160;DHT22;11748;50.844;4.396;2023-05-07T05:46:02;19.20;99.90
23160;DHT22;11748;50.844;4.396;2023-05-07T05:48:29;19.20;99.90
23160;DHT22;11748;50.844;4.396;2023-05-07T05:50:54;19.20;99.90
23160;DHT22;11748;50.844;4.396;2023-05-07T05:53:20;19.30;99.90
23160;DHT22;11748;50.844;4.396;2023-05-07T05:55:46;19.30;99.90
23160;DHT22;11748;50.844;4.396;2023-05-07T05:58:12;19.30;99.90
23160;DHT22;11748;50.844;4.396;2023-05-07T06:00:38;18.90;99.90
23160;DHT22;11748;50.844;4.396;2023-05-07T06:03:03;18.50;99.90
23160;DHT22;11748;50.844;4.396;2023-05-07T06:05:29;18.30;99.90
23160;DHT22;11748;50.844;4.396;2023-05-07T06:07:55;18.30;99.90
23160;DHT22;11748;50.844;4.396;2023-05-07T06:10:21;18.30;99.90
23160;DHT22;11748;50.844;4.396;2023-05-07T06:12:48;18.30;99.90
23160;DHT22;11748;50.844;4.396;2023-05-07T06:15:13;18.20;99.90
23160;DHT22;11748;50.844;4.396;2023-05-07T06:17:39;18.00;99.90
23160;DHT22;11748;50.844;4.396;2023-05-07T06:20:06;18.00;99.90
23160;DHT22;11748;50.844;4.396;2023-05-07T06:22:32;18.00;99.90
23160;DHT22;11748;50.844;4.396;2023-05-07T06:24:57;18.00;99.90
23160;DHT22;11748;50.844;4.396;2023-05-07T06:27:23;18.10;99.90
23160;DHT22;11748;50.844;4.396;2023-05-07T06:29:49;18.30;99.90
23160;DHT22;11748;50.844;4.396;2023-05-07T06:32:15;18.20;99.90
23160;DHT22;11748;50.844;4.396;2023-05-07T06:34:42;18.20;99.90
23160;DHT22;11748;50.844;4.396;2023-05-07T06:37:08;18.20;99.90
23160;DHT22;11748;50.844;4.396;2023-05-07T06:39:34;18.20;99.90
23160;DHT22;11748;50.844;4.396;2023-05-07T06:42:00;18.30;99.90
23160;DHT22;11748;50.844;4.396;2023-05-07T06:44:27;18.40;99.90
23160;DHT22;11748;50.844;4.396;2023-05-07T06:46:53;18.40;99.90
23160;DHT22;11748;50.844;4.396;2023-05-07T06:49:18;18.40;99.90
23160;DHT22;11748;50.844;4.396;2023-05-07T06:51:44;18.40;99.90
23160;DHT22;11748;50.844;4.396;2023-05-07T06:54:10;18.30;99.90
23160;DHT22;11748;50.844;4.396;2023-05-07T06:56:35;18.10;99.90
23160;DHT22;11748;50.844;4.396;2023-05-07T06:59:02;18.20;99.90
23160;DHT22;11748;50.844;4.396;2023-05-07T07:01:28;18.20;99.90
23160;DHT22;11748;50.844;4.396;2023-05-07T07:03:54;18.20;99.90
23160;DHT22;11748;50.844;4.396;2023-05-07T07:06:20;18.30;99.90
23160;DHT22;11748;50.844;4.396;2023-05-07T07:08:46;18.30;99.90
23160;DHT22;11748;50.844;4.396;2023-05-07T07:11:11;18.10;99.90
23160;DHT22;11748;50.844;4.396;2023-05-07T07:13:37;17.90;99.90
23160;DHT22;11748;50.844;4.396;2023-05-07T07:16:03;17.90;99.90
23160;DHT22;11748;50.844;4.396;2023-05-07T07:18:29;17.80;99.90
23160;DHT22;11748;50.844;4.396;2023-05-07T07:20:55;17.70;99.90
23160;DHT22;11748;50.844;4.396;2023-05-07T07:23:21;17.70;99.90
23160;DHT22;11748;50.844;4.396;2023-05-07T07:25:46;17.70;99.90
23160;DHT22;11748;50.844;4.396;2023-05-07T07:28:12;17.80;99.90
23160;DHT22;11748;50.844;4.396;2023-05-07T07:30:38;18.10;99.90
23160;DHT22;11748;50.844;4.396;2023-05-07T07:33:04;18.20;99.90
23160;DHT22;11748;50.844;4.396;2023-05-07T07:35:33;18.10;99.90
23160;DHT22;11748;50.844;4.396;2023-05-07T07:37:59;17.90;99.90
23160;DHT22;11748;50.844;4.396;2023-05-07T07:40:25;17.90;99.90
23160;DHT22;11748;50.844;4.396;2023-05-07T07:42:53;18.10;99.90
23160;DHT22;11748;50.844;4.396;2023-05-07T07:45:19;18.10;99.90
23160;DHT22;11748;50.844;4.396;2023-05-07T07:47:45;18.30;99.90
23160;DHT22;11748;50.844;4.396;2023-05-07T07:50:10;18.20;99.90
23160;DHT22;11748;50.844;4.396;2023-05-07T07:52:36;17.90;99.90
23160;DHT22;11748;50.844;4.396;2023-05-07T07:55:03;17.90;99.90
23160;DHT22;11748;50.844;4.396;2023-05-07T07:57:28;17.80;99.90
23160;DHT22;11748;50.844;4.396;2023-05-07T07:59:54;17.90;99.90
23160;DHT22;11748;50.844;4.396;2023-05-07T08:02:21;17.90;99.90
23160;DHT22;11748;50.844;4.396;2023-05-07T08:04:47;17.90;99.90
23160;DHT22;11748;50.844;4.396;2023-05-07T08:07:13;17.90;99.90
23160;DHT22;11748;50.844;4.396;2023-05-07T08:09:40;18.00;99.90
23160;DHT22;11748;50.844;4.396;2023-05-07T08:12:06;18.10;99.90
23160;DHT22;11748;50.844;4.396;2023-05-07T08:14:33;18.00;99.90
23160;DHT22;11748;50.844;4.396;2023-05-07T08:16:58;18.00;99.90
23160;DHT22;11748;50.844;4.396;2023-05-07T08:19:24;18.20;99.90
23160;DHT22;11748;50.844;4.396;2023-05-07T08:21:50;18.10;99.90
23160;DHT22;11748;50.844;4.396;2023-05-07T08:24:16;18.10;99.90
23160;DHT22;11748;50.844;4.396;2023-05-07T08:26:43;18.10;99.90
23160;DHT22;11748;50.844;4.396;2023-05-07T08:29:09;18.20;99.90
23160;DHT22;11748;50.844;4.396;2023-05-07T08:31:35;17.90;99.90
23160;DHT22;11748;50.844;4.396;2023-05-07T08:34:01;17.90;99.90
23160;DHT22;11748;50.844;4.396;2023-05-07T08:36:27;18.00;99.90
23160;DHT22;11748;50.844;4.396;2023-05-07T08:38:54;18.00;99.90
23160;DHT22;11748;50.844;4.396;2023-05-07T08:41:20;18.10;99.90
23160;DHT22;11748;50.844;4.396;2023-05-07T08:43:50;18.30;99.90
23160;DHT22;11748;50.844;4.396;2023-05-07T08:46:21;18.40;99.90
23160;DHT22;11748;50.844;4.396;2023-05-07T08:48:50;18.60;99.90
23160;DHT22;11748;50.844;4.396;2023-05-07T08:51:19;18.70;99.90
23160;DHT22;11748;50.844;4.396;2023-05-07T08:53:47;18.60;99.90
23160;DHT22;11748;50.844;4.396;2023-05-07T08:56:16;18.60;99.90
23160;DHT22;11748;50.844;4.396;2023-05-07T08:58:43;18.70;99.90
23160;DHT22;11748;50.844;4.396;2023-05-07T09:01:13;18.90;99.90
23160;DHT22;11748;50.844;4.396;2023-05-07T09:03:41;19.00;99.90
23160;DHT22;11748;50.844;4.396;2023-05-07T09:06:09;19.10;99.90
23160;DHT22;11748;50.844;4.396;2023-05-07T09:08:36;19.20;99.90
23160;DHT22;11748;50.844;4.396;2023-05-07T09:11:02;19.30;99.90
23160;DHT22;11748;50.844;4.396;2023-05-07T09:13:28;19.00;99.90
23160;DHT22;11748;50.844;4.396;2023-05-07T09:15:55;19.10;99.90
23160;DHT22;11748;50.844;4.396;2023-05-07T09:18:23;19.10;99.90
23160;DHT22;11748;50.844;4.396;2023-05-07T09:20:49;19.30;99.90
23160;DHT22;11748;50.844;4.396;2023-05-07T09:23:14;19.30;99.90
23160;DHT22;11748;50.844;4.396;2023-05-07T09:25:40;19.30;99.90
23160;DHT22;11748;50.844;4.396;2023-05-07T09:28:06;19.30;99.90
23160;DHT22;11748;50.844;4.396;2023-05-07T09:30:33;19.40;99.90
23160;DHT22;11748;50.844;4.396;2023-05-07T09:33:01;19.50;99.90
23160;DHT22;11748;50.844;4.396;2023-05-07T09:35:27;19.60;99.90
23160;DHT22;11748;50.844;4.396;2023-05-07T09:37:55;19.20;99.90
23160;DHT22;11748;50.844;4.396;2023-05-07T09:40:25;19.00;99.90
23160;DHT22;11748;50.844;4.396;2023-05-07T09:42:52;18.80;99.90
23160;DHT22;11748;50.844;4.396;2023-05-07T09:45:27;18.80;99.90
23160;DHT22;11748;50.844;4.396;2023-05-07T09:47:56;18.90;99.90
23160;DHT22;11748;50.844;4.396;2023-05-07T09:50:27;19.30;99.90
23160;DHT22;11748;50.844;4.396;2023-05-07T09:52:54;19.60;99.90
23160;DHT22;11748;50.844;4.396;2023-05-07T09:55:22;19.90;99.90
23160;DHT22;11748;50.844;4.396;2023-05-07T09:57:52;20.10;99.90
23160;DHT22;11748;50.844;4.396;2023-05-07T10:00:22;20.20;99.90
23160;DHT22;11748;50.844;4.396;2023-05-07T10:02:50;20.20;99.90
23160;DHT22;11748;50.844;4.396;2023-05-07T10:05:21;20.30;99.90
23160;DHT22;11748;50.844;4.396;2023-05-07T10:07:48;20.20;99.90
23160;DHT22;11748;50.844;4.396;2023-05-07T10:10:15;20.30;99.90
23160;DHT22;11748;50.844;4.396;2023-05-07T10:12:41;20.30;99.90
23160;DHT22;11748;50.844;4.396;2023-05-07T10:15:11;20.40;99.90
23160;DHT22;11748;50.844;4.396;2023-05-07T10:17:38;20.40;99.90
23160;DHT22;11748;50.844;4.396;2023-05-07T10:20:08;20.50;99.90
23160;DHT22;11748;50.844;4.396;2023-05-07T10:22:48;20.40;99.90
23160;DHT22;11748;50.844;4.396;2023-05-07T10:25:25;20.30;99.90
23160;DHT22;11748;50.844;4.396;2023-05-07T10:27:52;20.40;99.90
23160;DHT22;11748;50.844;4.396;2023-05-07T10:30:32;20.40;99.90
23160;DHT22;11748;50.844;4.396;2023-05-07T10:33:04;20.40;99.90
23160;DHT22;11748;50.844;4.396;2023-05-07T10:35:43;20.50;99.90
23160;DHT22;11748;50.844;4.396;2023-05-07T10:38:09;20.60;99.90
23160;DHT22;11748;50.844;4.396;2023-05-07T10:40:36;20.50;99.90
23160;DHT22;11748;50.844;4.396;2023-05-07T10:43:03;20.40;99.90
23160;DHT22;11748;50.844;4.396;2023-05-07T10:45:33;20.40;99.90
23160;DHT22;11748;50.844;4.396;2023-05-07T10:48:09;20.40;99.90
23160;DHT22;11748;50.844;4.396;2023-05-07T10:50:36;20.50;99.90
23160;DHT22;11748;50.844;4.396;2023-05-07T10:53:31;20.40;99.90
23160;DHT22;11748;50.844;4.396;2023-05-07T10:58:44;19.90;99.90
23160;DHT22;11748;50.844;4.396;2023-05-07T11:01:11;19.80;99.90
23160;DHT22;11748;50.844;4.396;2023-05-07T11:04:14;19.80;99.90
23160;DHT22;11748;50.844;4.396;2023-05-07T11:06:40;19.40;99.90
23160;DHT22;11748;50.844;4.396;2023-05-07T11:09:06;19.10;99.90
23160;DHT22;11748;50.844;4.396;2023-05-07T11:11:49;18.80;99.90
23160;DHT22;11748;50.844;4.396;2023-05-07T11:17:07;19.00;99.90
23160;DHT22;11748;50.844;4.396;2023-05-07T11:20:08;19.10;99.90
23160;DHT22;11748;50.844;4.396;2023-05-07T11:25:07;19.40;99.90
23160;DHT22;11748;50.844;4.396;2023-05-07T11:27:34;19.70;99.90
23160;DHT22;11748;50.844;4.396;2023-05-07T11:30:00;19.90;99.90
23160;DHT22;11748;50.844;4.396;2023-05-07T11:32:30;19.80;99.90
23160;DHT22;11748;50.844;4.396;2023-05-07T11:34:57;20.00;99.90
23160;DHT22;11748;50.844;4.396;2023-05-07T11:37:24;20.10;99.90
23160;DHT22;11748;50.844;4.396;2023-05-07T11:39:50;20.10;99.90
23160;DHT22;11748;50.844;4.396;2023-05-07T11:42:31;20.10;99.90
23160;DHT22;11748;50.844;4.396;2023-05-07T11:44:58;20.30;99.90
23160;DHT22;11748;50.844;4.396;2023-05-07T11:47:24;20.70;99.90
23160;DHT22;11748;50.844;4.396;2023-05-07T11:49:52;21.00;99.90
23160;DHT22;11748;50.844;4.396;2023-05-07T11:52:20;21.30;99.90
23160;DHT22;11748;50.844;4.396;2023-05-07T11:54:53;21.40;99.90
23160;DHT22;11748;50.844;4.396;2023-05-07T11:57:21;21.60;99.90
23160;DHT22;11748;50.844;4.396;2023-05-07T11:59:47;21.70;99.90
23160;DHT22;11748;50.844;4.396;2023-05-07T12:02:14;21.50;99.90
23160;DHT22;11748;50.844;4.396;2023-05-07T12:04:41;21.50;99.90
23160;DHT22;11748;50.844;4.396;2023-05-07T12:07:17;21.50;99.90
23160;DHT22;11748;50.844;4.396;2023-05-07T12:09:44;21.30;99.90
23160;DHT22;11748;50.844;4.396;2023-05-07T12:12:11;20.70;99.90
23160;DHT22;11748;50.844;4.396;2023-05-07T12:14:41;20.50;99.90
23160;DHT22;11748;50.844;4.396;2023-05-07T12:17:12;20.20;99.90
23160;DHT22;11748;50.844;4.396;2023-05-07T12:19:40;20.30;99.90
23160;DHT22;11748;50.844;4.396;2023-05-07T12:22:08;20.70;99.90
23160;DHT22;11748;50.844;4.396;2023-05-07T12:24:50;20.60;99.90
23160;DHT22;11748;50.844;4.396;2023-05-07T12:27:21;20.90;99.90
23160;DHT22;11748;50.844;4.396;2023-05-07T12:29:48;20.60;99.90
23160;DHT22;11748;50.844;4.396;2023-05-07T12:32:19;20.50;99.90
23160;DHT22;11748;50.844;4.396;2023-05-07T12:34:45;20.90;99.90
23160;DHT22;11748;50.844;4.396;2023-05-07T12:37:12;21.20;99.90
23160;DHT22;11748;50.844;4.396;2023-05-07T12:40:11;21.50;99.90
23160;DHT22;11748;50.844;4.396;2023-05-07T12:42:37;21.60;99.90
23160;DHT22;11748;50.844;4.396;2023-05-07T12:45:15;21.70;99.90
23160;DHT22;11748;50.844;4.396;2023-05-07T12:47:47;21.60;99.90
23160;DHT22;11748;50.844;4.396;2023-05-07T12:50:14;21.70;99.90
23160;DHT22;11748;50.844;4.396;2023-05-07T12:52:40;21.90;99.90
23160;DHT22;11748;50.844;4.396;2023-05-07T12:55:07;22.00;99.90
23160;DHT22;11748;50.844;4.396;2023-05-07T12:57:47;22.00;99.90
23160;DHT22;11748;50.844;4.396;2023-05-07T13:00:14;21.60;99.90
23160;DHT22;11748;50.844;4.396;2023-05-07T13:02:41;21.50;99.90
23160;DHT22;11748;50.844;4.396;2023-05-07T13:05:10;21.60;99.90
23160;DHT22;11748;50.844;4.396;2023-05-07T13:07:36;21.60;99.90
23160;DHT22;11748;50.844;4.396;2023-05-07T13:10:03;21.60;99.90
23160;DHT22;11748;50.844;4.396;2023-05-07T13:12:29;21.50;99.90
23160;DHT22;11748;50.844;4.396;2023-05-07T13:14:55;21.60;99.90
23160;DHT22;11748;50.844;4.396;2023-05-07T13:17:20;21.50;99.90
23160;DHT22;11748;50.844;4.396;2023-05-07T13:19:46;21.60;99.90
23160;DHT22;11748;50.844;4.396;2023-05-07T13:22:12;21.90;99.90
23160;DHT22;11748;50.844;4.396;2023-05-07T13:24:37;21.60;99.90
23160;DHT22;11748;50.844;4.396;2023-05-07T13:27:03;21.80;99.90
23160;DHT22;11748;50.844;4.396;2023-05-07T13:29:29;22.10;99.90
23160;DHT22;11748;50.844;4.396;2023-05-07T13:31:59;22.20;99.90
23160;DHT22;11748;50.844;4.396;2023-05-07T13:34:25;21.70;99.90
23160;DHT22;11748;50.844;4.396;2023-05-07T13:36:51;21.80;99.90
23160;DHT22;11748;50.844;4.396;2023-05-07T13:39:17;21.50;99.90
23160;DHT22;11748;50.844;4.396;2023-05-07T13:41:42;21.50;99.90
23160;DHT22;11748;50.844;4.396;2023-05-07T13:44:08;21.70;99.90
23160;DHT22;11748;50.844;4.396;2023-05-07T13:46:34;21.80;99.90
23160;DHT22;11748;50.844;4.396;2023-05-07T13:48:59;21.50;99.90
23160;DHT22;11748;50.844;4.396;2023-05-07T13:51:25;21.40;99.90
23160;DHT22;11748;50.844;4.396;2023-05-07T13:53:51;21.40;99.90
23160;DHT22;11748;50.844;4.396;2023-05-07T13:56:18;21.40;99.90
23160;DHT22;11748;50.844;4.396;2023-05-07T13:58:44;21.40;99.90
23160;DHT22;11748;50.844;4.396;2023-05-07T14:01:09;21.20;99.90
23160;DHT22;11748;50.844;4.396;2023-05-07T14:03:35;21.20;99.90
23160;DHT22;11748;50.844;4.396;2023-05-07T14:06:03;21.50;99.90
23160;DHT22;11748;50.844;4.396;2023-05-07T14:08:29;21.60;99.90
23160;DHT22;11748;50.844;4.396;2023-05-07T14:10:56;21.50;99.90
23160;DHT22;11748;50.844;4.396;2023-05-07T14:13:22;21.40;99.90
23160;DHT22;11748;50.844;4.396;2023-05-07T14:15:48;21.50;99.90
23160;DHT22;11748;50.844;4.396;2023-05-07T14:18:15;21.40;99.90
23160;DHT22;11748;50.844;4.396;2023-05-07T14:20:41;21.60;99.90
23160;DHT22;11748;50.844;4.396;2023-05-07T14:23:08;21.80;99.90
23160;DHT22;11748;50.844;4.396;2023-05-07T14:25:34;21.90;99.90
23160;DHT22;11748;50.844;4.396;2023-05-07T14:28:01;22.00;99.90
23160;DHT22;11748;50.844;4.396;2023-05-07T14:30:27;21.80;99.90
23160;DHT22;11748;50.844;4.396;2023-05-07T14:32:52;21.70;99.90
23160;DHT22;11748;50.844;4.396;2023-05-07T14:35:18;21.70;99.90
23160;DHT22;11748;50.844;4.396;2023-05-07T14:37:44;22.00;99.90
23160;DHT22;11748;50.844;4.396;2023-05-07T14:40:10;22.10;99.90
23160;DHT22;11748;50.844;4.396;2023-05-07T14:42:36;22.10;99.90
23160;DHT22;11748;50.844;4.396;2023-05-07T14:45:02;21.80;99.90
23160;DHT22;11748;50.844;4.396;2023-05-07T14:47:28;21.80;99.90
23160;DHT22;11748;50.844;4.396;2023-05-07T14:49:54;21.70;99.90
23160;DHT22;11748;50.844;4.396;2023-05-07T14:52:20;21.60;99.90
23160;DHT22;11748;50.844;4.396;2023-05-07T14:54:46;21.20;99.90
23160;DHT22;11748;50.844;4.396;2023-05-07T14:57:13;21.10;99.90
23160;DHT22;11748;50.844;4.396;2023-05-07T14:59:41;21.30;99.90
23160;DHT22;11748;50.844;4.396;2023-05-07T15:02:08;21.50;99.90
23160;DHT22;11748;50.844;4.396;2023-05-07T15:04:34;21.70;99.90
23160;DHT22;11748;50.844;4.396;2023-05-07T15:07:00;21.90;99.90
23160;DHT22;11748;50.844;4.396;2023-05-07T15:09:26;22.00;99.90
23160;DHT22;11748;50.844;4.396;2023-05-07T15:11:52;21.90;99.90
23160;DHT22;11748;50.844;4.396;2023-05-07T15:14:18;21.60;99.90
23160;DHT22;11748;50.844;4.396;2023-05-07T15:16:44;21.20;99.90
23160;DHT22;11748;50.844;4.396;2023-05-07T15:19:10;20.90;99.90
23160;DHT22;11748;50.844;4.396;2023-05-07T15:21:36;21.10;99.90
23160;DHT22;11748;50.844;4.396;2023-05-07T15:24:02;21.30;99.90
23160;DHT22;11748;50.844;4.396;2023-05-07T15:26:28;21.50;99.90
23160;DHT22;11748;50.844;4.396;2023-05-07T15:28:55;21.60;99.90
23160;DHT22;11748;50.844;4.396;2023-05-07T15:31:23;21.60;99.90
23160;DHT22;11748;50.844;4.396;2023-05-07T15:33:50;21.60;99.90
23160;DHT22;11748;50.844;4.396;2023-05-07T15:36:17;21.60;99.90
23160;DHT22;11748;50.844;4.396;2023-05-07T15:38:43;21.60;99.90